Time;durP1;ratioP1;P1;durP2;ratioP2;P2;SDS_P1;SDS_P2;PMS_P1;PMS_P2;Temp;Humidity;BMP_temperature;BMP_pressure;BME280_temperature;BME280_humidity;BME280_pressure;Samples;Min_cycle;Max_cycle;Signal;HPM_P1;HPM_P2
2023/06/17 00:01:05;;;;;;;6.80;3.72;;;15.10;94.10;;;;;;5088946;28;19974;-60
2023/06/17 00:03:31;;;;;;;5.10;3.50;;;15.10;94.10;;;;;;5087368;28;20435;-61
2023/06/17 00:05:56;;;;;;;;;;;14.90;94.30;;;;;;5094165;28;20040;-61
2023/06/17 00:08:22;;;;;;;6.90;3.85;;;14.90;94.40;;;;;;5094581;28;19926;-57
2023/06/17 00:10:47;;;;;;;;;;;14.80;94.30;;;;;;5088363;28;20625;-55
2023/06/17 00:13:19;;;;;;;10.05;4.72;;;14.80;94.40;;;;;;5079918;28;20437;-60
2023/06/17 00:15:47;;;;;;;8.48;5.38;;;14.80;95.00;;;;;;5086525;28;20105;-61
2023/06/17 00:18:14;;;;;;;9.52;5.57;;;14.70;95.50;;;;;;5085781;28;20047;-60
2023/06/17 00:20:39;;;;;;;6.70;4.68;;;14.50;96.20;;;;;;5081010;28;20531;-57
2023/06/17 00:23:06;;;;;;;;;;;14.50;96.00;;;;;;5085828;28;20078;-60
2023/06/17 00:25:32;;;;;;;11.90;3.83;;;14.50;95.60;;;;;;5069260;28;20027;-59
2023/06/17 00:27:57;;;;;;;;;;;14.60;95.40;;;;;;5070082;28;20151;-61
2023/06/17 00:30:23;;;;;;;10.15;4.30;;;14.60;95.30;;;;;;5074845;28;20248;-60
2023/06/17 00:32:49;;;;;;;6.63;3.75;;;14.50;95.30;;;;;;5081769;28;20621;-61
2023/06/17 00:35:14;;;;;;;;;;;14.50;95.40;;;;;;5070669;28;20036;-61
2023/06/17 00:37:40;;;;;;;12.38;3.60;;;14.50;95.50;;;;;;5067136;28;19920;-55
2023/06/17 00:40:07;;;;;;;;;;;14.50;95.40;;;;;;5076788;28;20042;-57
2023/06/17 00:42:34;;;;;;;;;;;14.60;95.50;;;;;;5070527;28;20364;-62
2023/06/17 00:44:59;;;;;;;7.17;4.00;;;14.50;95.50;;;;;;5071857;28;19927;-59
2023/06/17 00:47:25;;;;;;;;;;;14.50;95.60;;;;;;5066747;28;20302;-61
2023/06/17 00:49:53;;;;;;;11.18;4.47;;;14.40;95.80;;;;;;5070989;28;19920;-62
2023/06/17 00:52:19;;;;;;;9.95;5.10;;;14.40;95.90;;;;;;5078399;28;20064;-62
2023/06/17 00:54:45;;;;;;;;;;;14.40;96.20;;;;;;5075353;28;20055;-62
2023/06/17 00:57:14;;;;;;;7.97;5.10;;;14.20;96.60;;;;;;5068571;28;19920;-62
2023/06/17 00:59:44;;;;;;;9.35;5.68;;;14.10;97.00;;;;;;5067039;28;20863;-61
2023/06/17 01:02:11;;;;;;;7.82;5.40;;;14.10;97.20;;;;;;5072172;28;20113;-62
2023/06/17 01:04:46;;;;;;;6.55;4.10;;;14.00;97.50;;;;;;5071322;28;20507;-60
2023/06/17 01:07:35;;;;;;;6.28;3.58;;;14.10;97.00;;;;;;5067887;28;20036;-61
2023/06/17 01:10:21;;;;;;;7.88;3.92;;;14.20;96.80;;;;;;5070763;28;20048;-60
2023/06/17 01:12:47;;;;;;;5.47;3.72;;;14.10;96.70;;;;;;5088810;28;20048;-62
2023/06/17 01:15:16;;;;;;;5.88;4.45;;;14.10;96.70;;;;;;5066428;28;20040;-63
2023/06/17 01:17:44;;;;;;;7.05;4.28;;;14.00;96.80;;;;;;5073157;28;20040;-62
2023/06/17 01:20:15;;;;;;;7.80;4.53;;;14.00;96.80;;;;;;5074529;28;20040;-63
2023/06/17 01:22:42;;;;;;;6.28;3.90;;;14.00;96.80;;;;;;5074476;28;20052;-62
2023/06/17 01:25:08;;;;;;;5.47;4.13;;;14.00;97.00;;;;;;5062778;28;20087;-61
2023/06/17 01:27:34;;;;;;;8.05;4.15;;;14.00;96.80;;;;;;5063912;28;20079;-58
2023/06/17 01:30:00;;;;;;;;;;;14.10;97.10;;;;;;5071535;28;20832;-61
2023/06/17 01:32:26;;;;;;;7.63;4.97;;;14.00;97.40;;;;;;5069540;28;19924;-60
2023/06/17 01:34:55;;;;;;;;;;;13.90;97.50;;;;;;5069822;28;20032;-61
2023/06/17 01:37:27;;;;;;;9.18;5.18;;;13.70;97.80;;;;;;5069144;28;19917;-62
2023/06/17 01:39:57;;;;;;;9.77;5.88;;;13.50;98.60;;;;;;5072048;28;20048;-62
2023/06/17 01:42:31;;;;;;;6.45;5.05;;;13.40;99.10;;;;;;5069298;28;20032;-62
2023/06/17 01:45:01;;;;;;;8.13;5.22;;;13.50;98.90;;;;;;5066871;28;20093;-62
2023/06/17 01:47:27;;;;;;;6.72;3.97;;;13.60;98.90;;;;;;5069251;28;20899;-59
2023/06/17 01:49:54;;;;;;;;;;;13.60;98.00;;;;;;5070196;28;20048;-62
2023/06/17 01:52:20;;;;;;;8.82;4.53;;;13.70;97.70;;;;;;5071507;28;19920;-60
2023/06/17 01:54:46;;;;;;;;;;;13.70;97.50;;;;;;5062909;28;20060;-62
2023/06/17 01:57:11;;;;;;;5.18;3.75;;;13.60;97.50;;;;;;5075262;28;20394;-62
2023/06/17 01:59:37;;;;;;;;;;;13.60;97.60;;;;;;5075749;28;20040;-63
2023/06/17 02:02:03;;;;;;;6.55;3.85;;;13.50;97.80;;;;;;5069940;28;20395;-61
2023/06/17 02:04:29;;;;;;;;;;;13.50;97.80;;;;;;5070762;28;20088;-60
2023/06/17 02:06:54;;;;;;;8.45;3.95;;;13.50;97.90;;;;;;5068101;28;19928;-56
2023/06/17 02:09:20;;;;;;;;;;;13.50;97.90;;;;;;5064720;28;20041;-61
2023/06/17 02:11:46;;;;;;;6.68;3.90;;;13.40;97.90;;;;;;5069386;28;19920;-58
2023/06/17 02:14:11;;;;;;;6.82;4.38;;;13.40;98.00;;;;;;5070475;28;20551;-60
2023/06/17 02:16:39;;;;;;;;;;;13.40;98.10;;;;;;5077224;28;20160;-59
2023/06/17 02:19:05;;;;;;;;;;;13.50;98.00;;;;;;5077394;28;20269;-60
2023/06/17 02:21:30;;;;;;;8.23;3.90;;;13.50;98.10;;;;;;5081037;28;19969;-60
2023/06/17 02:23:56;;;;;;;;;;;13.40;98.10;;;;;;5064256;28;20463;-59
2023/06/17 02:26:21;;;;;;;6.65;3.83;;;13.40;98.20;;;;;;5063593;28;19986;-59
2023/06/17 02:28:47;;;;;;;;;;;13.40;98.40;;;;;;5070341;28;20071;-60
2023/06/17 02:31:12;;;;;;;;;;;13.30;98.70;;;;;;5076935;28;19985;-61
2023/06/17 02:33:38;;;;;;;;;;;13.30;98.80;;;;;;5076347;28;19920;-60
2023/06/17 02:36:03;;;;;;;;;;;13.30;98.80;;;;;;5073320;28;19926;-61
2023/06/17 02:38:29;;;;;;;;;;;13.30;99.00;;;;;;5069272;28;20559;-60
2023/06/17 02:40:54;;;;;;;;;;;13.30;99.10;;;;;;5075807;28;19920;-59
2023/06/17 02:43:20;;;;;;;;;;;13.30;99.30;;;;;;5063813;28;20656;-59
2023/06/17 02:45:46;;;;;;;;;;;13.20;99.20;;;;;;5074925;28;19923;-60
2023/06/17 02:48:11;;;;;;;;;;;13.30;99.30;;;;;;5074413;28;20416;-60
2023/06/17 02:50:37;;;;;;;;;;;13.30;99.40;;;;;;5074831;28;19954;-62
2023/06/17 02:53:04;;;;;;;;;;;13.20;99.60;;;;;;5074953;28;19917;-57
2023/06/17 02:55:30;;;;;;;;;;;13.20;99.60;;;;;;5061491;28;19916;-61
2023/06/17 02:57:55;;;;;;;;;;;13.20;99.80;;;;;;5060371;28;19920;-60
2023/06/17 03:00:21;;;;;;;;;;;13.20;99.70;;;;;;5070554;28;20387;-61
2023/06/17 03:02:47;;;;;;;;;;;13.20;99.70;;;;;;5078033;28;19920;-61
2023/06/17 03:05:12;;;;;;;;;;;13.30;99.70;;;;;;5068503;28;20420;-60
2023/06/17 03:07:40;;;;;;;;;;;13.30;99.80;;;;;;5078593;28;19917;-60
2023/06/17 03:10:05;;;;;;;;;;;13.20;99.90;;;;;;5064936;28;19920;-62
2023/06/17 03:12:31;;;;;;;;;;;13.20;99.90;;;;;;5075284;28;19961;-60
2023/06/17 03:15:00;;;;;;;;;;;13.20;99.90;;;;;;5067737;28;19973;-62
2023/06/17 03:17:27;;;;;;;;;;;13.20;99.90;;;;;;5066957;28;19943;-61
2023/06/17 03:19:53;;;;;;;;;;;13.20;99.90;;;;;;5077385;28;19908;-61
2023/06/17 03:22:21;;;;;;;;;;;13.20;99.90;;;;;;5067180;28;20797;-57
2023/06/17 03:24:47;;;;;;;;;;;13.20;99.90;;;;;;5051050;28;19947;-59
2023/06/17 03:27:12;;;;;;;;;;;13.20;99.90;;;;;;5045750;28;20459;-58
2023/06/17 03:29:38;;;;;;;;;;;13.20;99.90;;;;;;5053839;28;19927;-59
2023/06/17 03:32:04;;;;;;;;;;;13.30;99.90;;;;;;5062178;28;20495;-59
2023/06/17 03:34:30;;;;;;;;;;;13.20;99.90;;;;;;5056377;28;20526;-59
2023/06/17 03:36:56;;;;;;;;;;;13.20;99.90;;;;;;5061803;28;20380;-59
2023/06/17 03:39:22;;;;;;;;;;;13.30;99.90;;;;;;5066066;28;19967;-60
2023/06/17 03:41:47;;;;;;;;;;;13.40;99.90;;;;;;5073910;28;20566;-60
2023/06/17 03:44:13;;;;;;;;;;;13.50;99.90;;;;;;5059201;28;19920;-61
2023/06/17 03:46:39;;;;;;;;;;;13.60;99.90;;;;;;5074837;28;20764;-59
2023/06/17 03:49:04;;;;;;;;;;;13.80;99.90;;;;;;5057659;28;20405;-57
2023/06/17 03:51:30;;;;;;;;;;;13.90;99.50;;;;;;5069534;28;19954;-62
2023/06/17 03:53:56;;;;;;;;;;;14.00;99.50;;;;;;5068152;28;19966;-63
2023/06/17 03:56:21;;;;;;;;;;;14.10;99.50;;;;;;5060767;28;20012;-59
2023/06/17 03:58:47;;;;;;;;;;;14.10;99.50;;;;;;5062851;28;20431;-62
2023/06/17 04:01:13;;;;;;;;;;;14.10;99.50;;;;;;5069978;28;20372;-59
2023/06/17 04:03:40;;;;;;;;;;;14.20;99.50;;;;;;5072097;28;19920;-62
2023/06/17 04:06:05;;;;;;;;;;;14.30;99.40;;;;;;5065627;28;20023;-57
2023/06/17 04:08:32;;;;;;;;;;;14.40;99.30;;;;;;5079391;28;20439;-61
2023/06/17 04:10:58;;;;;;;;;;;14.40;99.20;;;;;;5063035;28;19923;-61
2023/06/17 04:13:24;;;;;;;;;;;14.50;99.10;;;;;;5064072;28;19920;-59
2023/06/17 04:15:50;;;;;;;;;;;14.60;99.10;;;;;;5065210;28;20692;-61
2023/06/17 04:18:15;;;;;;;;;;;14.70;98.90;;;;;;5076829;28;19967;-60
2023/06/17 04:20:41;;;;;;;;;;;14.90;98.70;;;;;;5074073;28;20379;-62
2023/06/17 04:23:06;;;;;;;;;;;15.30;98.40;;;;;;5063203;28;19924;-61
2023/06/17 04:25:32;;;;;;;;;;;15.50;97.50;;;;;;5062314;28;19920;-60
2023/06/17 04:27:58;;;;;;;;;;;15.50;97.60;;;;;;5065442;28;19919;-62
2023/06/17 04:30:25;;;;;;;;;;;15.50;97.80;;;;;;5067140;28;19916;-61
2023/06/17 04:32:51;;;;;;;;;;;15.70;98.10;;;;;;5066010;28;19959;-61
2023/06/17 04:35:18;;;;;;;;;;;16.10;97.70;;;;;;5062463;28;19920;-61
2023/06/17 04:37:44;;;;;;;;;;;16.80;96.60;;;;;;5059333;28;19920;-61
2023/06/17 04:40:12;;;;;;;;;;;16.80;95.60;;;;;;5064924;28;19978;-62
2023/06/17 04:42:40;;;;;;;;;;;16.70;95.60;;;;;;5078066;28;20283;-62
2023/06/17 04:45:08;;;;;;;;;;;16.70;95.50;;;;;;5066722;28;19923;-62
2023/06/17 04:47:33;;;;;;;;;;;16.60;95.80;;;;;;5062769;28;19943;-62
2023/06/17 04:49:59;;;;;;;;;;;16.60;95.20;;;;;;5061982;28;20376;-61
2023/06/17 04:52:25;;;;;;;;;;;16.60;95.40;;;;;;5061738;28;20002;-63
2023/06/17 04:54:51;;;;;;;;;;;16.60;95.90;;;;;;5065876;28;19920;-61
2023/06/17 04:57:17;;;;;;;;;;;16.90;95.20;;;;;;5058540;28;19924;-60
2023/06/17 04:59:43;;;;;;;;;;;17.20;93.90;;;;;;5066221;28;19963;-59
2023/06/17 05:02:08;;;;;;;;;;;17.30;93.70;;;;;;5078398;28;19951;-62
2023/06/17 05:04:34;;;;;;;;;;;17.20;94.10;;;;;;5069039;28;20034;-59
2023/06/17 05:06:59;;;;;;;;;;;17.10;94.20;;;;;;5060383;28;20392;-61
2023/06/17 05:09:25;;;;;;;;;;;17.00;94.40;;;;;;5060655;28;20262;-63
2023/06/17 05:11:51;;;;;;;;;;;17.10;94.20;;;;;;5073487;28;19919;-62
2023/06/17 05:14:16;;;;;;;;;;;17.10;94.00;;;;;;5059888;28;20473;-62
2023/06/17 05:16:42;;;;;;;;;;;17.10;93.90;;;;;;5069245;28;19922;-61
2023/06/17 05:19:07;;;;;;;;;;;17.20;93.50;;;;;;5063423;28;20698;-62
2023/06/17 05:21:33;;;;;;;;;;;17.20;93.20;;;;;;5072244;28;20617;-61
2023/06/17 05:23:58;;;;;;;;;;;17.30;93.80;;;;;;5086317;27;20003;-62
2023/06/17 05:26:24;;;;;;;;;;;17.40;93.00;;;;;;5060229;28;19943;-61
2023/06/17 05:28:49;;;;;;;;;;;17.80;91.40;;;;;;5073102;28;20775;-62
2023/06/17 05:31:15;;;;;;;;;;;17.90;91.20;;;;;;5086134;27;20028;-62
2023/06/17 05:33:40;;;;;;;;;;;17.90;91.20;;;;;;5088065;28;20152;-59
2023/06/17 05:36:06;;;;;;;;;;;17.90;91.40;;;;;;5064266;28;19916;-62
2023/06/17 05:38:32;;;;;;;;;;;17.90;92.30;;;;;;5080659;28;19920;-62
2023/06/17 05:40:57;;;;;;;;;;;17.90;91.30;;;;;;5068829;28;19915;-64
2023/06/17 05:43:26;;;;;;;;;;;18.10;91.60;;;;;;5103838;28;19920;-63
2023/06/17 05:45:51;;;;;;;;;;;18.50;90.20;;;;;;5069102;28;19924;-63
2023/06/17 05:48:17;;;;;;;;;;;18.70;89.60;;;;;;5072774;28;19931;-64
2023/06/17 05:50:43;;;;;;;;;;;18.50;90.00;;;;;;5063262;28;20003;-64
2023/06/17 05:53:08;;;;;;;;;;;18.40;89.80;;;;;;5072809;28;20637;-64
2023/06/17 05:55:34;;;;;;;;;;;18.30;90.30;;;;;;5056097;28;19916;-65
2023/06/17 05:57:59;;;;;;;;;;;18.30;90.20;;;;;;5068506;28;19927;-64
2023/06/17 06:00:25;;;;;;;;;;;18.50;90.00;;;;;;5064102;28;20311;-65
2023/06/17 06:02:51;;;;;;;;;;;18.80;87.90;;;;;;5080788;28;20517;-63
2023/06/17 06:05:16;;;;;;;;;;;18.70;88.60;;;;;;5073453;28;20351;-63
2023/06/17 06:07:43;;;;;;;;;;;18.70;88.80;;;;;;5058083;28;20631;-65
2023/06/17 06:10:09;;;;;;;;;;;18.70;90.50;;;;;;5070826;28;19943;-61
2023/06/17 06:12:35;;;;;;;;;;;18.80;90.20;;;;;;5067241;28;20937;-62
2023/06/17 06:15:01;;;;;;;;;;;19.10;88.20;;;;;;5074618;28;19923;-67
2023/06/17 06:17:26;;;;;;;;;;;19.50;86.40;;;;;;5062469;28;19920;-63
2023/06/17 06:19:52;;;;;;;;;;;21.10;81.70;;;;;;5061854;28;19924;-56
2023/06/17 06:22:17;;;;;;;;;;;22.30;75.40;;;;;;5056201;28;19924;-59
2023/06/17 06:24:43;;;;;;;;;;;21.90;75.90;;;;;;5058357;28;19927;-58
2023/06/17 06:27:08;;;;;;;;;;;21.30;77.90;;;;;;5056476;28;19920;-58
2023/06/17 06:29:34;;;;;;;;;;;20.70;80.20;;;;;;5067828;28;20407;-61
2023/06/17 06:32:00;;;;;;;;;;;20.30;83.70;;;;;;5058875;28;19924;-61
2023/06/17 06:34:26;;;;;;;;;;;20.30;81.60;;;;;;5064795;28;19919;-58
2023/06/17 06:36:51;;;;;;;;;;;20.60;82.80;;;;;;5061533;28;19920;-59
2023/06/17 06:39:17;;;;;;;;;;;21.60;78.90;;;;;;5075992;28;20668;-59
2023/06/17 06:41:42;;;;;;;;;;;21.80;77.40;;;;;;5075723;28;19927;-54
2023/06/17 06:44:08;;;;;;;;;;;21.40;76.00;;;;;;5077865;28;20727;-58
2023/06/17 06:46:34;;;;;;;;;;;21.20;78.50;;;;;;5057756;28;19924;-58
2023/06/17 06:48:59;;;;;;;;;;;21.20;80.10;;;;;;5068221;28;19983;-59
2023/06/17 06:51:25;;;;;;;;;;;21.00;77.20;;;;;;5062854;28;19977;-58
2023/06/17 06:53:51;;;;;;;;;;;21.30;75.80;;;;;;5063765;28;19921;-61
2023/06/17 06:56:17;;;;;;;;;;;22.60;71.30;;;;;;5057987;28;19920;-60
2023/06/17 06:58:42;;;;;;;;;;;23.20;70.00;;;;;;5081042;28;19920;-61
2023/06/17 07:01:08;;;;;;;;;;;22.70;69.20;;;;;;5066666;28;19927;-60
2023/06/17 07:03:33;;;;;;;;;;;22.40;71.30;;;;;;5061325;28;19920;-59
2023/06/17 07:05:59;;;;;;;;;;;22.00;73.50;;;;;;5064996;28;20276;-58
2023/06/17 07:08:24;;;;;;;;;;;21.70;72.70;;;;;;5059405;28;20299;-60
2023/06/17 07:10:50;;;;;;;;;;;21.40;73.90;;;;;;5073695;28;19967;-59
2023/06/17 07:13:17;;;;;;;;;;;21.10;75.50;;;;;;5077067;28;20470;-61
2023/06/17 07:15:43;;;;;;;;;;;21.00;74.00;;;;;;5061011;28;19967;-60
2023/06/17 07:18:10;;;;;;;;;;;20.90;72.30;;;;;;5063466;28;19920;-59
2023/06/17 07:20:35;;;;;;;;;;;21.10;75.30;;;;;;5067338;28;19985;-58
2023/06/17 07:23:01;;;;;;;;;;;21.90;72.60;;;;;;5060241;28;19999;-60
2023/06/17 07:25:26;;;;;;;;;;;22.40;69.50;;;;;;5066299;28;19950;-61
2023/06/17 07:27:56;;;;;;;;;;;23.10;68.30;;;;;;5081551;28;19920;-60
2023/06/17 07:30:21;;;;;;;;;;;23.60;66.20;;;;;;5083749;28;19924;-57
2023/06/17 07:32:47;;;;;;;;;;;23.60;64.80;;;;;;5077455;28;19943;-59
2023/06/17 07:35:13;;;;;;;;;;;23.70;66.40;;;;;;5067322;28;19967;-58
2023/06/17 07:37:38;;;;;;;;;;;23.60;66.20;;;;;;5074788;28;19916;-61
2023/06/17 07:40:06;;;;;;;;;;;23.40;67.20;;;;;;5069637;28;19939;-59
2023/06/17 07:42:31;;;;;;;;;;;23.00;69.10;;;;;;5074338;28;20006;-60
2023/06/17 07:44:57;;;;;;;;;;;22.40;71.40;;;;;;5075495;28;20053;-57
2023/06/17 07:47:23;;;;;;;;;;;22.10;74.80;;;;;;5063434;28;19924;-59
2023/06/17 07:49:48;;;;;;;;;;;22.00;69.20;;;;;;5065049;28;19927;-60
2023/06/17 07:52:14;;;;;;;;;;;21.90;72.70;;;;;;5067947;28;19919;-62
2023/06/17 07:54:41;;;;;;;;;;;21.70;71.50;;;;;;5069141;28;19920;-60
2023/06/17 07:57:06;;;;;;;;;;;21.60;72.70;;;;;;5069651;28;19919;-59
2023/06/17 07:59:32;;;;;;;;;;;21.60;73.30;;;;;;5065805;28;19931;-60
2023/06/17 08:01:58;;;;;;;;;;;21.40;75.80;;;;;;5071530;28;19920;-61
2023/06/17 08:04:24;;;;;;;;;;;21.50;72.50;;;;;;5063182;28;20019;-60
2023/06/17 08:06:49;;;;;;;;;;;21.70;74.60;;;;;;5063666;28;19971;-59
2023/06/17 08:09:15;;;;;;;;;;;22.00;74.50;;;;;;5065047;28;20016;-59
2023/06/17 08:11:41;;;;;;;;;;;23.40;70.10;;;;;;5070419;28;19975;-61
2023/06/17 08:14:06;;;;;;;;;;;24.10;67.90;;;;;;5078248;28;20295;-60
2023/06/17 08:16:32;;;;;;;;;;;24.10;67.50;;;;;;5071917;28;20379;-60
2023/06/17 08:18:57;;;;;;;;;;;23.90;65.40;;;;;;5069074;28;19920;-58
2023/06/17 08:21:23;;;;;;;;;;;23.60;68.30;;;;;;5071114;28;19921;-61
2023/06/17 08:23:51;;;;;;;;;;;23.10;68.30;;;;;;5068504;28;19920;-56
2023/06/17 08:26:16;;;;;;;;;;;23.00;69.30;;;;;;5071451;28;19963;-61
2023/06/17 08:28:42;;;;;;;;;;;22.90;69.10;;;;;;5078697;28;19980;-59
2023/06/17 08:31:07;;;;;;;;;;;22.60;69.30;;;;;;5070651;28;20383;-61
2023/06/17 08:33:33;;;;;;;;;;;22.50;70.90;;;;;;5077856;28;19923;-60
2023/06/17 08:35:59;;;;;;;;;;;22.60;69.60;;;;;;5069285;28;19943;-54
2023/06/17 08:38:25;;;;;;;;;;;22.90;69.00;;;;;;5073214;28;19959;-59
2023/06/17 08:40:50;;;;;;;;;;;23.70;67.40;;;;;;5070862;28;19955;-60
2023/06/17 08:43:19;;;;;;;;;;;23.90;67.50;;;;;;5076255;28;19916;-57
2023/06/17 08:45:50;;;;;;;;;;;23.30;66.50;;;;;;5068956;28;20447;-61
2023/06/17 08:48:16;;;;;;;;;;;24.10;67.60;;;;;;5079727;28;19920;-60
2023/06/17 08:50:42;;;;;;;;;;;25.70;63.40;;;;;;5074436;28;20474;-62
2023/06/17 08:53:08;;;;;;;;;;;26.40;62.00;;;;;;5074609;28;19927;-62
2023/06/17 08:55:34;;;;;;;;;;;26.20;59.90;;;;;;5066021;28;19966;-60
2023/06/17 08:58:01;;;;;;;;;;;25.60;59.80;;;;;;5080873;28;20757;-61
2023/06/17 09:00:26;;;;;;;;;;;25.30;60.90;;;;;;5071378;28;19916;-62
2023/06/17 09:02:54;;;;;;;;;;;25.00;64.00;;;;;;5079456;28;19947;-61
2023/06/17 09:05:19;;;;;;;;;;;24.30;63.70;;;;;;5068217;28;19920;-60
2023/06/17 09:07:45;;;;;;;;;;;23.90;65.60;;;;;;5075432;28;19981;-58
2023/06/17 09:10:14;;;;;;;;;;;23.60;69.20;;;;;;5072729;28;19920;-58
2023/06/17 09:12:40;;;;;;;;;;;23.40;66.70;;;;;;5075408;28;19927;-58
2023/06/17 09:15:14;;;;;;;;;;;23.20;67.50;;;;;;5067840;28;20015;-55
2023/06/17 09:17:42;;;;;;;;;;;23.30;69.20;;;;;;5067779;28;19927;-60
2023/06/17 09:20:14;;;;;;;;;;;23.10;66.10;;;;;;5069300;28;19924;-55
2023/06/17 09:22:43;;;;;;;;;;;23.10;65.70;;;;;;5072641;28;19920;-56
2023/06/17 09:25:14;;;;;;;;;;;23.20;66.80;;;;;;5072432;28;20275;-62
2023/06/17 09:27:46;;;;;;;;;;;23.20;63.40;;;;;;5075436;28;19923;-61
2023/06/17 09:30:13;;;;;;;;;;;23.00;66.90;;;;;;5066668;28;20460;-61
2023/06/17 09:32:40;;;;;;;;;;;22.90;66.70;;;;;;5075024;28;19917;-61
2023/06/17 09:35:07;;;;;;;;;;;22.90;64.10;;;;;;5068753;28;19928;-60
2023/06/17 09:37:33;;;;;;;;;;;23.00;66.90;;;;;;5064320;28;20407;-61
2023/06/17 09:39:59;;;;;;;;;;;23.30;64.00;;;;;;5064003;28;20920;-59
2023/06/17 09:42:30;;;;;;;;;;;23.20;65.10;;;;;;5074105;28;19922;-59
2023/06/17 09:44:56;;;;;;;;;;;22.90;65.70;;;;;;5070017;28;19923;-59
2023/06/17 09:47:31;;;;;;;;;;;23.00;66.60;;;;;;5089912;28;20018;-62
2023/06/17 09:49:56;;;;;;;;;;;22.90;66.70;;;;;;5074393;28;20411;-60
2023/06/17 09:52:22;;;;;;;;;;;22.80;64.00;;;;;;5073622;28;19924;-62
2023/06/17 09:54:49;;;;;;;;;;;23.10;65.20;;;;;;5069090;28;19927;-61
2023/06/17 09:57:16;;;;;;;;;;;23.40;63.70;;;;;;5073158;28;19962;-60
2023/06/17 09:59:43;;;;;;;;;;;23.50;62.40;;;;;;5074766;28;19963;-59
2023/06/17 10:02:10;;;;;;;;;;;23.30;61.70;;;;;;5065765;28;19916;-64
2023/06/17 10:04:35;;;;;;;;;;;23.60;65.10;;;;;;5065908;28;19930;-62
2023/06/17 10:07:02;;;;;;;;;;;23.60;62.30;;;;;;5062860;28;20010;-60
2023/06/17 10:09:28;;;;;;;;;;;23.60;60.40;;;;;;5074082;28;19974;-60
2023/06/17 10:11:54;;;;;;;;;;;23.70;60.60;;;;;;5067031;28;19963;-60
2023/06/17 10:14:30;;;;;;;;;;;23.60;57.20;;;;;;5075029;28;19948;-61
2023/06/17 10:16:56;;;;;;;;;;;23.50;63.30;;;;;;5073625;28;19916;-59
2023/06/17 10:19:27;;;;;;;;;;;23.90;60.70;;;;;;5078698;28;19923;-59
2023/06/17 10:21:54;;;;;;;;;;;24.00;60.00;;;;;;5065092;28;19955;-56
2023/06/17 10:24:20;;;;;;;;;;;24.10;61.70;;;;;;5073452;28;20520;-60
2023/06/17 10:26:49;;;;;;;;;;;23.90;61.40;;;;;;5067368;28;19974;-56
2023/06/17 10:29:14;;;;;;;;;;;23.80;60.30;;;;;;5071207;28;19920;-55
2023/06/17 10:31:42;;;;;;;;;;;23.80;63.50;;;;;;5073475;28;19927;-60
2023/06/17 10:34:13;;;;;;;;;;;23.70;60.70;;;;;;5067313;28;19920;-57
2023/06/17 10:36:38;;;;;;;;;;;23.90;62.60;;;;;;5075746;28;20031;-58
2023/06/17 10:39:04;;;;;;;;;;;23.90;59.30;;;;;;5066132;28;20340;-60
2023/06/17 10:41:42;;;;;;;;;;;24.10;60.80;;;;;;5075334;28;20319;-60
2023/06/17 10:44:20;;;;;;;;;;;23.90;61.60;;;;;;5079905;28;19920;-55
2023/06/17 10:46:52;;;;;;;;;;;24.10;60.80;;;;;;5061739;28;20406;-57
2023/06/17 10:49:18;;;;;;;;;;;24.30;60.50;;;;;;5067728;28;19962;-60
2023/06/17 10:51:50;;;;;;;;;;;24.40;59.50;;;;;;5073247;28;19949;-60
2023/06/17 10:54:29;;;;;;;;;;;24.30;59.80;;;;;;5070236;28;19926;-57
2023/06/17 10:56:55;;;;;;;;;;;24.30;59.90;;;;;;5072240;28;20868;-58
2023/06/17 10:59:24;;;;;;;;;;;24.00;60.40;;;;;;5077045;28;19920;-58
2023/06/17 11:01:50;;;;;;;;;;;24.00;62.30;;;;;;5062451;28;20463;-58
2023/06/17 11:04:16;;;;;;;;;;;24.00;57.60;;;;;;5088427;28;19916;-60
2023/06/17 11:06:45;;;;;;;;;;;24.10;59.60;;;;;;5074867;28;19920;-59
2023/06/17 11:09:11;;;;;;;;;;;24.30;57.50;;;;;;5068377;28;19920;-54
2023/06/17 11:11:36;;;;;;;;;;;24.30;60.60;;;;;;5074256;28;20413;-59
2023/06/17 11:14:02;;;;;;;;;;;24.10;57.90;;;;;;5069324;28;19959;-59
2023/06/17 11:16:29;;;;;;;;;;;24.20;59.90;;;;;;5067478;28;20191;-60
2023/06/17 11:18:54;;;;;;;;;;;24.10;57.80;;;;;;5071284;28;19951;-56
2023/06/17 11:21:20;;;;;;;;;;;24.10;56.60;;;;;;5068867;28;19997;-58
2023/06/17 11:23:46;;;;;;;;;;;24.30;59.00;;;;;;5068096;28;19923;-59
2023/06/17 11:26:11;;;;;;;;;;;24.30;59.50;;;;;;5065434;28;19928;-58
2023/06/17 11:28:39;;;;;;;;;;;24.30;58.20;;;;;;5068296;28;19924;-61
2023/06/17 11:31:05;;;;;;;;;;;24.50;57.60;;;;;;5063728;28;19969;-55
2023/06/17 11:33:32;;;;;;;;;;;24.50;57.10;;;;;;5070886;28;19920;-59
2023/06/17 11:35:58;;;;;;;;;;;24.50;54.30;;;;;;5071123;28;19924;-60
2023/06/17 11:38:25;;;;;;;;;;;24.60;55.60;;;;;;5063679;28;19927;-59
2023/06/17 11:40:55;;;;;;;;;;;24.60;58.90;;;;;;5063355;28;19920;-58
2023/06/17 11:43:25;;;;;;;;;;;24.60;57.20;;;;;;5069153;28;19919;-61
2023/06/17 11:45:53;;;;;;;;;;;24.50;56.90;;;;;;5066630;28;20021;-62
2023/06/17 11:48:19;;;;;;;;;;;24.60;56.00;;;;;;5071115;28;20379;-60
2023/06/17 11:50:45;;;;;;;;;;;24.70;56.00;;;;;;5072081;28;19993;-55
2023/06/17 11:53:11;;;;;;;;;;;24.70;54.40;;;;;;5064230;28;19916;-56
2023/06/17 11:55:36;;;;;;;;;;;24.60;56.00;;;;;;5062365;28;19916;-56
2023/06/17 11:58:03;;;;;;;;;;;24.30;56.80;;;;;;5060343;28;20395;-53
2023/06/17 12:00:29;;;;;;;;;;;24.50;57.70;;;;;;5068910;28;20383;-60
2023/06/17 12:02:57;;;;;;;;;;;24.40;58.80;;;;;;5064301;28;20053;-60
2023/06/17 12:05:29;;;;;;;;;;;24.40;54.80;;;;;;5065754;28;19923;-57
2023/06/17 12:07:59;;;;;;;;;;;24.60;56.80;;;;;;5067585;28;20020;-60
2023/06/17 12:10:26;;;;;;;;;;;24.40;56.90;;;;;;5073220;28;19916;-61
2023/06/17 12:12:54;;;;;;;;;;;24.50;57.60;;;;;;5070344;28;19920;-60
2023/06/17 12:15:25;;;;;;;;;;;24.80;57.70;;;;;;5079487;28;20454;-59
2023/06/17 12:17:51;;;;;;;;;;;25.10;56.20;;;;;;5087290;28;19956;-60
2023/06/17 12:20:19;;;;;;;;;;;25.20;54.40;;;;;;5078263;28;19958;-58
2023/06/17 12:22:47;;;;;;;;;;;25.00;54.90;;;;;;5071806;28;19925;-60
2023/06/17 12:25:12;;;;;;;;;;;24.80;53.80;;;;;;5066022;28;20696;-60
2023/06/17 12:27:39;;;;;;;;;;;24.80;57.40;;;;;;5076620;28;20683;-57
2023/06/17 12:30:05;;;;;;;;;;;25.00;58.80;;;;;;5084502;28;19916;-58
2023/06/17 12:32:31;;;;;;;;;;;25.20;55.70;;;;;;5072520;28;19920;-60
2023/06/17 12:34:57;;;;;;;;;;;25.30;55.30;;;;;;5066089;28;19927;-61
2023/06/17 12:37:26;;;;;;;;;;;25.40;57.30;;;;;;5073209;28;19927;-60
2023/06/17 12:39:52;;;;;;;;;;;25.40;55.00;;;;;;5075945;28;19990;-59
2023/06/17 12:42:18;;;;;;;;;;;25.10;56.30;;;;;;5071719;28;19928;-60
2023/06/17 12:44:45;;;;;;;;;;;24.90;55.60;;;;;;5067748;28;19972;-61
2023/06/17 12:47:11;;;;;;;;;;;25.00;57.40;;;;;;5063932;28;19925;-60
2023/06/17 12:49:37;;;;;;;;;;;25.20;56.50;;;;;;5079721;28;19916;-60
2023/06/17 12:52:02;;;;;;;;;;;25.40;54.60;;;;;;5080550;28;20523;-60
2023/06/17 12:54:28;;;;;;;;;;;25.60;55.60;;;;;;5077021;28;19916;-61
2023/06/17 12:56:53;;;;;;;;;;;25.40;54.40;;;;;;5075596;28;19967;-59
2023/06/17 12:59:19;;;;;;;;;;;25.40;56.10;;;;;;5065460;28;20381;-60
2023/06/17 13:01:45;;;;;;;;;;;25.60;55.20;;;;;;5071805;28;20291;-60
2023/06/17 13:04:10;;;;;;;;;;;25.40;55.00;;;;;;5069713;28;19920;-56
2023/06/17 13:06:37;;;;;;;;;;;25.30;56.20;;;;;;5089202;28;19960;-59
2023/06/17 13:09:02;;;;;;;;;;;25.30;54.60;;;;;;5070646;28;19993;-60
2023/06/17 13:11:28;;;;;;;;;;;25.00;53.80;;;;;;5071426;28;20387;-60
2023/06/17 13:13:54;;;;;;;;;;;25.20;55.20;;;;;;5065038;28;19931;-61
2023/06/17 13:16:21;;;;;;;;;;;25.40;55.40;;;;;;5067090;28;19920;-60
2023/06/17 13:18:46;;;;;;;;;;;25.60;54.90;;;;;;5073853;28;19920;-59
2023/06/17 13:21:12;;;;;;;;;;;25.80;54.50;;;;;;5081193;28;20405;-57
2023/06/17 13:23:37;;;;;;;;;;;26.00;53.90;;;;;;5073624;28;19916;-59
2023/06/17 13:26:04;;;;;;;;;;;26.10;54.50;;;;;;5065248;28;19966;-57
2023/06/17 13:28:32;;;;;;;;;;;25.70;52.70;;;;;;5082133;28;20318;-61
2023/06/17 13:31:04;;;;;;;;;;;25.70;53.00;;;;;;5067720;28;19928;-60
2023/06/17 13:33:30;;;;;;;;;;;25.60;55.50;;;;;;5076564;28;19920;-59
2023/06/17 13:35:56;;;;;;;;;;;25.40;53.80;;;;;;5069950;28;19927;-60
2023/06/17 13:38:21;;;;;;;;;;;25.60;55.00;;;;;;5064683;28;19920;-60
2023/06/17 13:40:47;;;;;;;;;;;25.80;55.20;;;;;;5068772;28;19950;-61
2023/06/17 13:43:12;;;;;;;;;;;26.00;52.60;;;;;;5069643;28;20288;-60
2023/06/17 13:45:38;;;;;;;;;;;25.90;52.30;;;;;;5064329;28;19924;-53
2023/06/17 13:48:04;;;;;;;;;;;26.00;53.10;;;;;;5078563;28;20281;-60
2023/06/17 13:50:30;;;;;;;;;;;26.20;55.00;;;;;;5069409;28;19920;-61
2023/06/17 13:52:58;;;;;;;;;;;26.20;53.90;;;;;;5069909;28;19943;-61
2023/06/17 13:55:24;;;;;;;;;;;26.10;53.80;;;;;;5067308;28;19920;-62
2023/06/17 13:57:50;;;;;;;;;;;25.80;55.10;;;;;;5083895;28;19996;-61
2023/06/17 14:00:16;;;;;;;;;;;26.00;53.30;;;;;;5067404;28;20677;-58